Alpine Haven, Vermont
Current Conditions -  °F | °C
As of 3:15 AM on Monday 22 Dec 2014 (Local Time) from KEFK Reporting Station
Haze Haze  
Wind Chill: -7°   Ceiling: 2200
Heat Index: -7°   Visibility: 5mi
Dew Point: -8°   Wind: 0mph
Humidity: 92%   Direction: NA
Pressure: 30.36"   Gusts: NA
Location:  44.8557°N, 72.6016°W
Report Text: KEFK 220815Z AUTO 00000KT 5SM BR OVC022 M07/M08 A3036 RMK AO2 T10711082
Loading
Personal Weather Stations






























Interactive Weather Map New forecast layout! Learn more

10-Day Weather Forecast

Advertisements
Track Severe Weather on mobile